sensor_id;sensor_type;location;lat;lon;timestamp;temperature;humidity
18083;DHT22;9168;51.194;6.840;2024-03-23T00:54:18;9.10;99.90
18083;DHT22;9168;51.194;6.840;2024-03-23T00:56:44;9.10;99.90
18083;DHT22;9168;51.194;6.840;2024-03-23T00:59:11;9.10;99.90
18083;DHT22;9168;51.194;6.840;2024-03-23T01:01:37;9.10;99.90
18083;DHT22;9168;51.194;6.840;2024-03-23T01:04:03;9.00;99.90
18083;DHT22;9168;51.194;6.840;2024-03-23T01:06:29;9.00;99.90
18083;DHT22;9168;51.194;6.840;2024-03-23T01:08:56;9.00;99.90
18083;DHT22;9168;51.194;6.840;2024-03-23T01:11:24;8.90;99.90
18083;DHT22;9168;51.194;6.840;2024-03-23T01:13:50;8.90;99.90
18083;DHT22;9168;51.194;6.840;2024-03-23T01:16:16;8.90;99.90
18083;DHT22;9168;51.194;6.840;2024-03-23T01:18:43;8.90;99.90
18083;DHT22;9168;51.194;6.840;2024-03-23T01:21:09;8.80;99.90
18083;DHT22;9168;51.194;6.840;2024-03-23T01:23:35;8.80;99.90
18083;DHT22;9168;51.194;6.840;2024-03-23T01:26:01;8.80;99.90
18083;DHT22;9168;51.194;6.840;2024-03-23T01:28:28;8.80;99.90
18083;DHT22;9168;51.194;6.840;2024-03-23T01:30:53;8.80;99.90
18083;DHT22;9168;51.194;6.840;2024-03-23T01:33:20;8.80;99.90
18083;DHT22;9168;51.194;6.840;2024-03-23T01:35:46;8.80;99.90
18083;DHT22;9168;51.194;6.840;2024-03-23T01:38:13;8.80;99.90
18083;DHT22;9168;51.194;6.840;2024-03-23T01:40:39;8.80;99.90
18083;DHT22;9168;51.194;6.840;2024-03-23T01:43:07;8.90;99.90
18083;DHT22;9168;51.194;6.840;2024-03-23T01:45:33;8.90;99.90
18083;DHT22;9168;51.194;6.840;2024-03-23T01:48:00;8.90;99.90
18083;DHT22;9168;51.194;6.840;2024-03-23T01:50:27;8.80;99.90
18083;DHT22;9168;51.194;6.840;2024-03-23T01:52:54;8.80;99.90
18083;DHT22;9168;51.194;6.840;2024-03-23T01:55:20;8.70;99.90
18083;DHT22;9168;51.194;6.840;2024-03-23T01:57:57;8.70;99.90
18083;DHT22;9168;51.194;6.840;2024-03-23T02:00:22;8.70;99.90
18083;DHT22;9168;51.194;6.840;2024-03-23T02:02:49;8.70;99.90
18083;DHT22;9168;51.194;6.840;2024-03-23T02:05:15;8.60;99.90
18083;DHT22;9168;51.194;6.840;2024-03-23T02:07:42;8.60;99.90
18083;DHT22;9168;51.194;6.840;2024-03-23T02:10:09;8.50;99.90
18083;DHT22;9168;51.194;6.840;2024-03-23T02:12:38;8.50;99.90
18083;DHT22;9168;51.194;6.840;2024-03-23T02:15:06;8.40;99.90
18083;DHT22;9168;51.194;6.840;2024-03-23T02:17:35;8.40;99.90
18083;DHT22;9168;51.194;6.840;2024-03-23T02:20:02;8.30;99.90
18083;DHT22;9168;51.194;6.840;2024-03-23T02:22:36;8.20;99.90
18083;DHT22;9168;51.194;6.840;2024-03-23T02:25:06;8.10;99.90
18083;DHT22;9168;51.194;6.840;2024-03-23T02:27:33;8.10;99.90
18083;DHT22;9168;51.194;6.840;2024-03-23T02:30:00;8.10;99.90
18083;DHT22;9168;51.194;6.840;2024-03-23T02:32:26;8.00;99.90
18083;DHT22;9168;51.194;6.840;2024-03-23T02:34:52;8.00;99.90
18083;DHT22;9168;51.194;6.840;2024-03-23T02:37:19;8.00;99.90
18083;DHT22;9168;51.194;6.840;2024-03-23T02:39:45;7.90;99.90
18083;DHT22;9168;51.194;6.840;2024-03-23T02:42:11;7.90;99.90
18083;DHT22;9168;51.194;6.840;2024-03-23T02:44:37;7.90;99.90
18083;DHT22;9168;51.194;6.840;2024-03-23T02:47:04;7.90;99.90
18083;DHT22;9168;51.194;6.840;2024-03-23T02:49:30;7.90;99.90
18083;DHT22;9168;51.194;6.840;2024-03-23T02:51:56;7.90;99.90
18083;DHT22;9168;51.194;6.840;2024-03-23T02:54:22;7.90;99.90
18083;DHT22;9168;51.194;6.840;2024-03-23T02:56:49;7.90;99.90
18083;DHT22;9168;51.194;6.840;2024-03-23T02:59:15;7.90;99.90
18083;DHT22;9168;51.194;6.840;2024-03-23T03:01:41;7.80;99.90
18083;DHT22;9168;51.194;6.840;2024-03-23T03:04:07;7.90;99.90
18083;DHT22;9168;51.194;6.840;2024-03-23T03:06:34;7.90;99.90
18083;DHT22;9168;51.194;6.840;2024-03-23T03:08:59;7.90;99.90
18083;DHT22;9168;51.194;6.840;2024-03-23T03:11:26;7.90;99.90
18083;DHT22;9168;51.194;6.840;2024-03-23T03:13:52;7.90;99.90
18083;DHT22;9168;51.194;6.840;2024-03-23T03:16:19;7.90;99.90
18083;DHT22;9168;51.194;6.840;2024-03-23T03:18:44;7.90;99.90
18083;DHT22;9168;51.194;6.840;2024-03-23T03:21:12;7.90;99.90
18083;DHT22;9168;51.194;6.840;2024-03-23T03:23:38;7.80;99.90
18083;DHT22;9168;51.194;6.840;2024-03-23T03:26:05;7.80;99.90
18083;DHT22;9168;51.194;6.840;2024-03-23T03:28:34;7.80;99.90
18083;DHT22;9168;51.194;6.840;2024-03-23T03:31:01;7.80;99.90
18083;DHT22;9168;51.194;6.840;2024-03-23T03:33:30;7.80;99.90
18083;DHT22;9168;51.194;6.840;2024-03-23T03:35:56;7.80;99.90
18083;DHT22;9168;51.194;6.840;2024-03-23T03:38:22;7.90;99.90
18083;DHT22;9168;51.194;6.840;2024-03-23T03:40:49;7.80;99.90
18083;DHT22;9168;51.194;6.840;2024-03-23T03:43:14;7.80;99.90
18083;DHT22;9168;51.194;6.840;2024-03-23T03:45:41;7.80;99.90
18083;DHT22;9168;51.194;6.840;2024-03-23T03:48:07;7.80;99.90
18083;DHT22;9168;51.194;6.840;2024-03-23T03:50:34;7.70;99.90
18083;DHT22;9168;51.194;6.840;2024-03-23T03:53:00;7.70;99.90
18083;DHT22;9168;51.194;6.840;2024-03-23T03:55:26;7.70;99.90
18083;DHT22;9168;51.194;6.840;2024-03-23T03:57:53;7.70;99.90
18083;DHT22;9168;51.194;6.840;2024-03-23T04:00:19;7.70;99.90
18083;DHT22;9168;51.194;6.840;2024-03-23T04:02:45;7.70;99.90
18083;DHT22;9168;51.194;6.840;2024-03-23T04:05:12;7.70;99.90
18083;DHT22;9168;51.194;6.840;2024-03-23T04:07:38;7.70;99.90
18083;DHT22;9168;51.194;6.840;2024-03-23T04:10:05;7.70;99.90
18083;DHT22;9168;51.194;6.840;2024-03-23T04:12:33;7.80;99.90
18083;DHT22;9168;51.194;6.840;2024-03-23T04:15:00;7.80;99.90
18083;DHT22;9168;51.194;6.840;2024-03-23T04:17:28;7.70;99.90
18083;DHT22;9168;51.194;6.840;2024-03-23T04:19:57;7.70;99.90
18083;DHT22;9168;51.194;6.840;2024-03-23T04:22:23;7.70;99.90
18083;DHT22;9168;51.194;6.840;2024-03-23T04:24:53;7.70;99.90
18083;DHT22;9168;51.194;6.840;2024-03-23T04:27:19;7.70;99.90
18083;DHT22;9168;51.194;6.840;2024-03-23T04:29:52;7.70;99.90
18083;DHT22;9168;51.194;6.840;2024-03-23T04:32:18;7.80;99.90
18083;DHT22;9168;51.194;6.840;2024-03-23T04:34:45;7.70;99.90
18083;DHT22;9168;51.194;6.840;2024-03-23T04:37:11;7.80;99.90
18083;DHT22;9168;51.194;6.840;2024-03-23T04:39:38;7.70;99.90
18083;DHT22;9168;51.194;6.840;2024-03-23T04:42:05;7.70;99.90
18083;DHT22;9168;51.194;6.840;2024-03-23T04:44:32;7.70;99.90
18083;DHT22;9168;51.194;6.840;2024-03-23T04:46:59;7.70;99.90
18083;DHT22;9168;51.194;6.840;2024-03-23T04:49:26;7.70;99.90
18083;DHT22;9168;51.194;6.840;2024-03-23T04:51:53;7.70;99.90
18083;DHT22;9168;51.194;6.840;2024-03-23T04:54:20;7.70;99.90
18083;DHT22;9168;51.194;6.840;2024-03-23T04:56:46;7.70;99.90
18083;DHT22;9168;51.194;6.840;2024-03-23T04:59:12;7.70;99.90
18083;DHT22;9168;51.194;6.840;2024-03-23T05:01:39;7.70;99.90
18083;DHT22;9168;51.194;6.840;2024-03-23T05:04:07;7.70;99.90
18083;DHT22;9168;51.194;6.840;2024-03-23T05:06:34;7.60;99.90
18083;DHT22;9168;51.194;6.840;2024-03-23T05:09:00;7.60;99.90
18083;DHT22;9168;51.194;6.840;2024-03-23T05:11:28;7.60;99.90
18083;DHT22;9168;51.194;6.840;2024-03-23T05:13:54;7.60;99.90
18083;DHT22;9168;51.194;6.840;2024-03-23T05:16:21;7.60;99.90
18083;DHT22;9168;51.194;6.840;2024-03-23T05:18:46;7.60;99.90
18083;DHT22;9168;51.194;6.840;2024-03-23T05:21:13;7.60;99.90
18083;DHT22;9168;51.194;6.840;2024-03-23T05:23:39;7.50;99.90
18083;DHT22;9168;51.194;6.840;2024-03-23T05:26:05;7.50;99.90
18083;DHT22;9168;51.194;6.840;2024-03-23T05:28:31;7.40;99.90
18083;DHT22;9168;51.194;6.840;2024-03-23T05:30:58;7.50;99.90
18083;DHT22;9168;51.194;6.840;2024-03-23T05:33:24;7.40;99.90
18083;DHT22;9168;51.194;6.840;2024-03-23T05:35:58;7.40;99.90
18083;DHT22;9168;51.194;6.840;2024-03-23T05:38:24;7.40;99.90
18083;DHT22;9168;51.194;6.840;2024-03-23T05:40:55;7.40;99.90
18083;DHT22;9168;51.194;6.840;2024-03-23T05:43:21;7.40;99.90
18083;DHT22;9168;51.194;6.840;2024-03-23T05:45:58;7.30;99.90
18083;DHT22;9168;51.194;6.840;2024-03-23T05:48:25;7.30;99.90
18083;DHT22;9168;51.194;6.840;2024-03-23T05:50:53;7.40;99.90
18083;DHT22;9168;51.194;6.840;2024-03-23T05:53:19;7.50;99.90
18083;DHT22;9168;51.194;6.840;2024-03-23T05:55:46;7.50;99.90
18083;DHT22;9168;51.194;6.840;2024-03-23T05:58:14;7.50;99.90
18083;DHT22;9168;51.194;6.840;2024-03-23T06:00:41;7.40;99.90
18083;DHT22;9168;51.194;6.840;2024-03-23T06:03:08;7.40;99.90
18083;DHT22;9168;51.194;6.840;2024-03-23T06:05:36;7.40;99.90
18083;DHT22;9168;51.194;6.840;2024-03-23T06:08:01;7.40;99.90
18083;DHT22;9168;51.194;6.840;2024-03-23T06:10:28;7.40;99.90
18083;DHT22;9168;51.194;6.840;2024-03-23T06:12:54;7.40;99.90
18083;DHT22;9168;51.194;6.840;2024-03-23T06:15:21;7.40;99.90
18083;DHT22;9168;51.194;6.840;2024-03-23T06:17:48;7.30;99.90
18083;DHT22;9168;51.194;6.840;2024-03-23T06:20:15;7.40;99.90
18083;DHT22;9168;51.194;6.840;2024-03-23T06:22:40;7.30;99.90
18083;DHT22;9168;51.194;6.840;2024-03-23T06:25:07;7.30;99.90
18083;DHT22;9168;51.194;6.840;2024-03-23T06:27:34;7.30;99.90
18083;DHT22;9168;51.194;6.840;2024-03-23T06:30:00;7.30;99.90
18083;DHT22;9168;51.194;6.840;2024-03-23T06:32:27;7.30;99.90
18083;DHT22;9168;51.194;6.840;2024-03-23T06:34:54;7.30;99.90
18083;DHT22;9168;51.194;6.840;2024-03-23T06:37:20;7.20;99.90
18083;DHT22;9168;51.194;6.840;2024-03-23T06:39:46;7.30;99.90
18083;DHT22;9168;51.194;6.840;2024-03-23T06:42:12;7.20;99.90
18083;DHT22;9168;51.194;6.840;2024-03-23T06:44:39;7.30;99.90
18083;DHT22;9168;51.194;6.840;2024-03-23T06:47:05;7.30;99.90
18083;DHT22;9168;51.194;6.840;2024-03-23T06:49:32;7.40;99.90
18083;DHT22;9168;51.194;6.840;2024-03-23T06:51:57;7.40;99.90
18083;DHT22;9168;51.194;6.840;2024-03-23T06:54:24;7.40;99.90
18083;DHT22;9168;51.194;6.840;2024-03-23T06:56:50;7.40;99.90
18083;DHT22;9168;51.194;6.840;2024-03-23T06:59:17;7.40;99.90
18083;DHT22;9168;51.194;6.840;2024-03-23T07:01:43;7.40;99.90
18083;DHT22;9168;51.194;6.840;2024-03-23T07:04:09;7.50;99.90
18083;DHT22;9168;51.194;6.840;2024-03-23T07:06:45;7.50;99.90
18083;DHT22;9168;51.194;6.840;2024-03-23T07:09:14;7.60;99.90
18083;DHT22;9168;51.194;6.840;2024-03-23T07:11:40;7.60;99.90
18083;DHT22;9168;51.194;6.840;2024-03-23T07:14:07;7.50;99.90
18083;DHT22;9168;51.194;6.840;2024-03-23T07:16:33;7.50;99.90
18083;DHT22;9168;51.194;6.840;2024-03-23T07:18:59;7.60;99.90
18083;DHT22;9168;51.194;6.840;2024-03-23T07:21:25;7.60;99.90
18083;DHT22;9168;51.194;6.840;2024-03-23T07:23:52;7.60;99.90
18083;DHT22;9168;51.194;6.840;2024-03-23T07:26:17;7.70;99.90
18083;DHT22;9168;51.194;6.840;2024-03-23T07:28:45;7.70;99.90
18083;DHT22;9168;51.194;6.840;2024-03-23T07:31:15;7.70;99.90
18083;DHT22;9168;51.194;6.840;2024-03-23T07:33:45;7.80;99.90
18083;DHT22;9168;51.194;6.840;2024-03-23T07:36:11;7.80;99.90
18083;DHT22;9168;51.194;6.840;2024-03-23T07:38:39;7.80;99.90
18083;DHT22;9168;51.194;6.840;2024-03-23T07:41:10;7.80;99.90
18083;DHT22;9168;51.194;6.840;2024-03-23T07:43:39;7.90;99.90
18083;DHT22;9168;51.194;6.840;2024-03-23T07:46:06;7.90;99.90
18083;DHT22;9168;51.194;6.840;2024-03-23T07:48:33;8.00;99.90
18083;DHT22;9168;51.194;6.840;2024-03-23T07:50:59;8.10;99.90
18083;DHT22;9168;51.194;6.840;2024-03-23T07:53:27;8.00;99.90
18083;DHT22;9168;51.194;6.840;2024-03-23T07:56:01;8.10;99.90
18083;DHT22;9168;51.194;6.840;2024-03-23T07:58:27;8.10;99.90
18083;DHT22;9168;51.194;6.840;2024-03-23T08:00:54;8.20;99.90
18083;DHT22;9168;51.194;6.840;2024-03-23T08:03:21;8.20;99.90
18083;DHT22;9168;51.194;6.840;2024-03-23T08:05:47;8.20;99.90
18083;DHT22;9168;51.194;6.840;2024-03-23T08:08:14;8.20;99.90
18083;DHT22;9168;51.194;6.840;2024-03-23T08:10:49;8.20;99.90
18083;DHT22;9168;51.194;6.840;2024-03-23T08:13:16;8.30;99.90
18083;DHT22;9168;51.194;6.840;2024-03-23T08:15:42;8.40;99.90
18083;DHT22;9168;51.194;6.840;2024-03-23T08:18:13;8.40;99.90
18083;DHT22;9168;51.194;6.840;2024-03-23T08:20:41;8.40;99.90
18083;DHT22;9168;51.194;6.840;2024-03-23T08:23:07;8.60;99.90
18083;DHT22;9168;51.194;6.840;2024-03-23T08:25:34;8.60;99.90
18083;DHT22;9168;51.194;6.840;2024-03-23T08:28:00;8.70;99.90
18083;DHT22;9168;51.194;6.840;2024-03-23T08:30:27;8.80;99.90
18083;DHT22;9168;51.194;6.840;2024-03-23T08:32:53;9.00;99.90
18083;DHT22;9168;51.194;6.840;2024-03-23T08:35:21;9.00;99.90
18083;DHT22;9168;51.194;6.840;2024-03-23T08:37:47;9.00;99.90
18083;DHT22;9168;51.194;6.840;2024-03-23T08:40:14;9.10;99.90
18083;DHT22;9168;51.194;6.840;2024-03-23T08:42:39;9.20;99.90
18083;DHT22;9168;51.194;6.840;2024-03-23T08:45:06;9.30;99.90
18083;DHT22;9168;51.194;6.840;2024-03-23T08:47:34;9.30;99.90
18083;DHT22;9168;51.194;6.840;2024-03-23T08:50:01;9.30;99.90
18083;DHT22;9168;51.194;6.840;2024-03-23T08:52:27;9.40;99.90
18083;DHT22;9168;51.194;6.840;2024-03-23T08:54:55;9.50;99.90
18083;DHT22;9168;51.194;6.840;2024-03-23T08:57:22;9.50;99.90
18083;DHT22;9168;51.194;6.840;2024-03-23T08:59:50;9.40;99.90
18083;DHT22;9168;51.194;6.840;2024-03-23T09:02:15;9.40;99.90
18083;DHT22;9168;51.194;6.840;2024-03-23T09:04:43;9.30;99.90
18083;DHT22;9168;51.194;6.840;2024-03-23T09:07:09;9.20;99.90
18083;DHT22;9168;51.194;6.840;2024-03-23T09:09:38;9.20;99.90
18083;DHT22;9168;51.194;6.840;2024-03-23T09:12:04;9.10;99.90
18083;DHT22;9168;51.194;6.840;2024-03-23T09:14:31;9.00;99.90
18083;DHT22;9168;51.194;6.840;2024-03-23T09:16:57;9.00;99.90
18083;DHT22;9168;51.194;6.840;2024-03-23T09:19:23;9.00;99.90
18083;DHT22;9168;51.194;6.840;2024-03-23T09:21:49;9.00;99.90
18083;DHT22;9168;51.194;6.840;2024-03-23T09:24:16;9.10;99.90
18083;DHT22;9168;51.194;6.840;2024-03-23T09:26:42;9.10;99.90
18083;DHT22;9168;51.194;6.840;2024-03-23T09:29:08;9.20;99.90
18083;DHT22;9168;51.194;6.840;2024-03-23T09:31:34;9.30;99.90
18083;DHT22;9168;51.194;6.840;2024-03-23T09:34:01;9.40;99.90
18083;DHT22;9168;51.194;6.840;2024-03-23T09:36:27;9.50;99.90
18083;DHT22;9168;51.194;6.840;2024-03-23T09:38:53;9.70;99.90
18083;DHT22;9168;51.194;6.840;2024-03-23T09:41:19;9.80;99.90
18083;DHT22;9168;51.194;6.840;2024-03-23T09:43:46;10.00;99.90
18083;DHT22;9168;51.194;6.840;2024-03-23T09:46:14;10.00;99.90
18083;DHT22;9168;51.194;6.840;2024-03-23T09:48:43;10.00;99.90
18083;DHT22;9168;51.194;6.840;2024-03-23T09:51:11;10.00;99.90
18083;DHT22;9168;51.194;6.840;2024-03-23T09:53:38;10.10;99.90
18083;DHT22;9168;51.194;6.840;2024-03-23T09:56:04;10.30;99.90
18083;DHT22;9168;51.194;6.840;2024-03-23T09:58:31;10.40;99.90
18083;DHT22;9168;51.194;6.840;2024-03-23T10:00:58;10.50;99.90
18083;DHT22;9168;51.194;6.840;2024-03-23T10:03:24;10.50;99.90
18083;DHT22;9168;51.194;6.840;2024-03-23T10:06:01;10.60;99.90
18083;DHT22;9168;51.194;6.840;2024-03-23T10:08:29;10.60;99.90
18083;DHT22;9168;51.194;6.840;2024-03-23T10:10:55;10.60;99.90
18083;DHT22;9168;51.194;6.840;2024-03-23T10:13:25;10.50;99.90
18083;DHT22;9168;51.194;6.840;2024-03-23T10:15:56;10.40;99.90
18083;DHT22;9168;51.194;6.840;2024-03-23T10:18:24;10.40;99.90
18083;DHT22;9168;51.194;6.840;2024-03-23T10:23:33;10.40;99.90
18083;DHT22;9168;51.194;6.840;2024-03-23T10:31:17;10.50;99.90
18083;DHT22;9168;51.194;6.840;2024-03-23T10:33:45;10.50;99.90
18083;DHT22;9168;51.194;6.840;2024-03-23T10:36:12;10.50;99.90
18083;DHT22;9168;51.194;6.840;2024-03-23T10:38:41;10.20;99.90
18083;DHT22;9168;51.194;6.840;2024-03-23T10:41:08;10.00;99.90
18083;DHT22;9168;51.194;6.840;2024-03-23T10:43:37;10.00;99.90
18083;DHT22;9168;51.194;6.840;2024-03-23T10:46:04;9.90;99.90
18083;DHT22;9168;51.194;6.840;2024-03-23T10:48:33;9.80;99.90
18083;DHT22;9168;51.194;6.840;2024-03-23T10:50:59;9.50;99.90
18083;DHT22;9168;51.194;6.840;2024-03-23T10:53:28;9.40;99.90
18083;DHT22;9168;51.194;6.840;2024-03-23T10:55:55;9.20;99.90
18083;DHT22;9168;51.194;6.840;2024-03-23T10:58:38;8.90;99.90
18083;DHT22;9168;51.194;6.840;2024-03-23T11:01:04;8.70;99.90
18083;DHT22;9168;51.194;6.840;2024-03-23T11:03:36;8.50;99.90
18083;DHT22;9168;51.194;6.840;2024-03-23T11:06:03;8.20;99.90
18083;DHT22;9168;51.194;6.840;2024-03-23T11:08:31;8.10;99.90
18083;DHT22;9168;51.194;6.840;2024-03-23T11:11:21;8.00;99.90
18083;DHT22;9168;51.194;6.840;2024-03-23T11:13:55;7.90;99.90
18083;DHT22;9168;51.194;6.840;2024-03-23T11:16:25;7.90;99.90
18083;DHT22;9168;51.194;6.840;2024-03-23T11:19:34;7.90;99.90
18083;DHT22;9168;51.194;6.840;2024-03-23T11:22:00;7.80;99.90
18083;DHT22;9168;51.194;6.840;2024-03-23T11:24:26;7.90;99.90
18083;DHT22;9168;51.194;6.840;2024-03-23T11:26:52;8.00;99.90
18083;DHT22;9168;51.194;6.840;2024-03-23T11:29:19;8.10;99.90
18083;DHT22;9168;51.194;6.840;2024-03-23T11:31:52;8.20;99.90
18083;DHT22;9168;51.194;6.840;2024-03-23T11:34:20;8.30;99.90
18083;DHT22;9168;51.194;6.840;2024-03-23T11:36:47;8.70;99.90
18083;DHT22;9168;51.194;6.840;2024-03-23T11:39:15;9.80;99.90
18083;DHT22;9168;51.194;6.840;2024-03-23T11:41:50;11.30;99.90
18083;DHT22;9168;51.194;6.840;2024-03-23T11:44:24;12.90;99.90
18083;DHT22;9168;51.194;6.840;2024-03-23T11:46:50;14.30;99.90
18083;DHT22;9168;51.194;6.840;2024-03-23T11:51:49;16.30;99.90
18083;DHT22;9168;51.194;6.840;2024-03-23T11:54:20;17.10;99.90
18083;DHT22;9168;51.194;6.840;2024-03-23T11:57:08;17.60;99.90
18083;DHT22;9168;51.194;6.840;2024-03-23T11:59:36;18.00;99.90
18083;DHT22;9168;51.194;6.840;2024-03-23T12:02:12;17.20;99.90
18083;DHT22;9168;51.194;6.840;2024-03-23T12:04:40;16.00;99.90
18083;DHT22;9168;51.194;6.840;2024-03-23T12:07:21;14.90;99.90
18083;DHT22;9168;51.194;6.840;2024-03-23T12:10:04;13.70;99.90
18083;DHT22;9168;51.194;6.840;2024-03-23T12:12:35;12.80;99.90
18083;DHT22;9168;51.194;6.840;2024-03-23T12:15:07;12.00;99.90
18083;DHT22;9168;51.194;6.840;2024-03-23T12:17:34;11.30;99.90
18083;DHT22;9168;51.194;6.840;2024-03-23T12:20:01;10.60;99.90
18083;DHT22;9168;51.194;6.840;2024-03-23T12:22:28;10.20;99.90
18083;DHT22;9168;51.194;6.840;2024-03-23T12:24:55;9.90;99.90
18083;DHT22;9168;51.194;6.840;2024-03-23T12:27:20;9.70;99.90
18083;DHT22;9168;51.194;6.840;2024-03-23T12:29:47;9.70;99.90
18083;DHT22;9168;51.194;6.840;2024-03-23T12:32:13;9.70;99.90
18083;DHT22;9168;51.194;6.840;2024-03-23T12:34:41;9.90;99.90
18083;DHT22;9168;51.194;6.840;2024-03-23T12:37:07;10.40;99.90
18083;DHT22;9168;51.194;6.840;2024-03-23T12:39:34;10.40;99.90
18083;DHT22;9168;51.194;6.840;2024-03-23T12:42:01;10.30;99.90
18083;DHT22;9168;51.194;6.840;2024-03-23T12:44:28;10.10;99.90
18083;DHT22;9168;51.194;6.840;2024-03-23T12:46:54;9.80;99.90
18083;DHT22;9168;51.194;6.840;2024-03-23T12:49:21;9.60;99.90
18083;DHT22;9168;51.194;6.840;2024-03-23T12:51:53;9.60;99.90
18083;DHT22;9168;51.194;6.840;2024-03-23T12:54:21;9.70;99.90
18083;DHT22;9168;51.194;6.840;2024-03-23T12:56:46;10.10;99.90
18083;DHT22;9168;51.194;6.840;2024-03-23T12:59:13;11.10;99.90
18083;DHT22;9168;51.194;6.840;2024-03-23T13:01:40;11.90;99.90
18083;DHT22;9168;51.194;6.840;2024-03-23T13:04:06;12.60;99.90
18083;DHT22;9168;51.194;6.840;2024-03-23T13:06:32;13.00;99.90
18083;DHT22;9168;51.194;6.840;2024-03-23T13:09:01;12.70;99.90
18083;DHT22;9168;51.194;6.840;2024-03-23T13:11:27;12.50;99.90
18083;DHT22;9168;51.194;6.840;2024-03-23T13:13:54;12.50;99.90
18083;DHT22;9168;51.194;6.840;2024-03-23T13:16:20;12.60;99.90
18083;DHT22;9168;51.194;6.840;2024-03-23T13:18:47;12.80;99.90
18083;DHT22;9168;51.194;6.840;2024-03-23T13:21:12;12.60;99.90
18083;DHT22;9168;51.194;6.840;2024-03-23T13:23:39;12.10;99.90
18083;DHT22;9168;51.194;6.840;2024-03-23T13:26:07;11.50;99.90
18083;DHT22;9168;51.194;6.840;2024-03-23T13:28:34;11.10;99.90
18083;DHT22;9168;51.194;6.840;2024-03-23T13:31:01;10.80;99.90
18083;DHT22;9168;51.194;6.840;2024-03-23T13:33:29;10.50;99.90
18083;DHT22;9168;51.194;6.840;2024-03-23T13:35:55;10.40;99.90
18083;DHT22;9168;51.194;6.840;2024-03-23T13:38:22;10.60;99.90
18083;DHT22;9168;51.194;6.840;2024-03-23T13:40:52;11.20;99.90
18083;DHT22;9168;51.194;6.840;2024-03-23T13:43:20;11.80;99.90
18083;DHT22;9168;51.194;6.840;2024-03-23T13:45:51;12.70;99.90
18083;DHT22;9168;51.194;6.840;2024-03-23T13:48:20;13.30;99.90
18083;DHT22;9168;51.194;6.840;2024-03-23T13:50:46;13.50;99.90
18083;DHT22;9168;51.194;6.840;2024-03-23T13:53:14;13.40;99.90
18083;DHT22;9168;51.194;6.840;2024-03-23T13:55:47;12.90;99.90
18083;DHT22;9168;51.194;6.840;2024-03-23T13:58:15;12.20;99.90
18083;DHT22;9168;51.194;6.840;2024-03-23T14:00:41;11.70;99.90
18083;DHT22;9168;51.194;6.840;2024-03-23T14:03:11;11.30;99.90
18083;DHT22;9168;51.194;6.840;2024-03-23T14:05:37;10.90;99.90
18083;DHT22;9168;51.194;6.840;2024-03-23T14:08:08;10.70;99.90
18083;DHT22;9168;51.194;6.840;2024-03-23T14:10:34;10.50;99.90
18083;DHT22;9168;51.194;6.840;2024-03-23T14:13:04;10.60;99.90
18083;DHT22;9168;51.194;6.840;2024-03-23T14:15:30;11.10;99.90
18083;DHT22;9168;51.194;6.840;2024-03-23T14:17:57;11.40;99.90
18083;DHT22;9168;51.194;6.840;2024-03-23T14:20:23;11.70;99.90
18083;DHT22;9168;51.194;6.840;2024-03-23T14:22:50;12.30;99.90
18083;DHT22;9168;51.194;6.840;2024-03-23T14:25:16;12.90;99.90
18083;DHT22;9168;51.194;6.840;2024-03-23T14:27:46;13.50;99.90
18083;DHT22;9168;51.194;6.840;2024-03-23T14:30:13;13.80;99.90
18083;DHT22;9168;51.194;6.840;2024-03-23T14:32:40;13.70;99.90
18083;DHT22;9168;51.194;6.840;2024-03-23T14:35:06;13.20;99.90
18083;DHT22;9168;51.194;6.840;2024-03-23T14:37:36;12.60;99.90
18083;DHT22;9168;51.194;6.840;2024-03-23T14:40:02;11.80;99.90
18083;DHT22;9168;51.194;6.840;2024-03-23T14:42:30;11.20;99.90
18083;DHT22;9168;51.194;6.840;2024-03-23T14:44:56;10.90;99.90
18083;DHT22;9168;51.194;6.840;2024-03-23T14:47:23;10.50;99.90
18083;DHT22;9168;51.194;6.840;2024-03-23T14:49:49;10.30;99.90
18083;DHT22;9168;51.194;6.840;2024-03-23T14:52:19;10.00;99.90
18083;DHT22;9168;51.194;6.840;2024-03-23T14:54:45;9.90;99.90
18083;DHT22;9168;51.194;6.840;2024-03-23T14:57:12;9.80;99.90
18083;DHT22;9168;51.194;6.840;2024-03-23T14:59:38;9.70;99.90
18083;DHT22;9168;51.194;6.840;2024-03-23T15:02:06;9.50;99.90
18083;DHT22;9168;51.194;6.840;2024-03-23T15:04:32;9.50;99.90
18083;DHT22;9168;51.194;6.840;2024-03-23T15:06:59;9.40;99.90
18083;DHT22;9168;51.194;6.840;2024-03-23T15:09:24;9.20;99.90
18083;DHT22;9168;51.194;6.840;2024-03-23T15:11:51;9.20;99.90
18083;DHT22;9168;51.194;6.840;2024-03-23T15:14:17;9.20;99.90
18083;DHT22;9168;51.194;6.840;2024-03-23T15:16:44;9.40;99.90
18083;DHT22;9168;51.194;6.840;2024-03-23T15:19:09;10.00;99.90
18083;DHT22;9168;51.194;6.840;2024-03-23T15:21:36;10.40;99.90
18083;DHT22;9168;51.194;6.840;2024-03-23T15:24:02;10.60;99.90
18083;DHT22;9168;51.194;6.840;2024-03-23T15:26:28;10.60;99.90
18083;DHT22;9168;51.194;6.840;2024-03-23T15:28:54;10.60;99.90
18083;DHT22;9168;51.194;6.840;2024-03-23T15:31:37;10.60;99.90
18083;DHT22;9168;51.194;6.840;2024-03-23T15:34:02;10.70;99.90
18083;DHT22;9168;51.194;6.840;2024-03-23T15:36:30;10.90;99.90
18083;DHT22;9168;51.194;6.840;2024-03-23T15:38:56;11.00;99.90
18083;DHT22;9168;51.194;6.840;2024-03-23T15:41:23;11.10;99.90
18083;DHT22;9168;51.194;6.840;2024-03-23T15:43:49;11.00;99.90
18083;DHT22;9168;51.194;6.840;2024-03-23T15:46:15;11.10;99.90
18083;DHT22;9168;51.194;6.840;2024-03-23T15:48:43;10.90;99.90
18083;DHT22;9168;51.194;6.840;2024-03-23T15:51:12;10.80;99.90
18083;DHT22;9168;51.194;6.840;2024-03-23T15:53:38;10.70;99.90
18083;DHT22;9168;51.194;6.840;2024-03-23T15:56:05;10.60;99.90
18083;DHT22;9168;51.194;6.840;2024-03-23T15:58:32;10.40;99.90
18083;DHT22;9168;51.194;6.840;2024-03-23T16:01:01;10.40;99.90
18083;DHT22;9168;51.194;6.840;2024-03-23T16:03:27;10.40;99.90
18083;DHT22;9168;51.194;6.840;2024-03-23T16:05:55;10.30;99.90
18083;DHT22;9168;51.194;6.840;2024-03-23T16:08:22;10.20;99.90
18083;DHT22;9168;51.194;6.840;2024-03-23T16:10:49;10.10;99.90
18083;DHT22;9168;51.194;6.840;2024-03-23T16:13:16;9.90;99.90
18083;DHT22;9168;51.194;6.840;2024-03-23T16:15:43;9.70;99.90
18083;DHT22;9168;51.194;6.840;2024-03-23T16:18:09;9.60;99.90
18083;DHT22;9168;51.194;6.840;2024-03-23T16:20:36;9.40;99.90
18083;DHT22;9168;51.194;6.840;2024-03-23T16:23:02;9.40;99.90
18083;DHT22;9168;51.194;6.840;2024-03-23T16:25:29;9.30;99.90
18083;DHT22;9168;51.194;6.840;2024-03-23T16:27:55;9.30;99.90
18083;DHT22;9168;51.194;6.840;2024-03-23T16:30:22;9.30;99.90
18083;DHT22;9168;51.194;6.840;2024-03-23T16:32:48;9.40;99.90
18083;DHT22;9168;51.194;6.840;2024-03-23T16:35:15;9.50;99.90
18083;DHT22;9168;51.194;6.840;2024-03-23T16:37:41;9.60;99.90
18083;DHT22;9168;51.194;6.840;2024-03-23T16:40:08;9.70;99.90
18083;DHT22;9168;51.194;6.840;2024-03-23T16:42:35;9.60;99.90
18083;DHT22;9168;51.194;6.840;2024-03-23T16:45:02;9.50;99.90
18083;DHT22;9168;51.194;6.840;2024-03-23T16:47:29;9.50;99.90
18083;DHT22;9168;51.194;6.840;2024-03-23T16:49:55;9.30;99.90
18083;DHT22;9168;51.194;6.840;2024-03-23T16:52:22;9.20;99.90
18083;DHT22;9168;51.194;6.840;2024-03-23T16:54:48;9.10;99.90
18083;DHT22;9168;51.194;6.840;2024-03-23T16:57:14;9.10;99.90
18083;DHT22;9168;51.194;6.840;2024-03-23T16:59:41;9.00;99.90
18083;DHT22;9168;51.194;6.840;2024-03-23T17:02:06;9.00;99.90